sensor_id;sensor_type;location;lat;lon;timestamp;P1;durP1;ratioP1;P2;durP2;ratioP2
59974;SDS011;62136;-35.664;-63.766;2023-04-25T00:00:55;8.35;;;3.50;;
59974;SDS011;62136;-35.664;-63.766;2023-04-25T00:03:22;15.70;;;4.30;;
59974;SDS011;62136;-35.664;-63.766;2023-04-25T00:05:50;18.27;;;4.25;;
59974;SDS011;62136;-35.664;-63.766;2023-04-25T00:08:17;18.30;;;3.92;;
59974;SDS011;62136;-35.664;-63.766;2023-04-25T00:10:45;14.05;;;3.80;;
59974;SDS011;62136;-35.664;-63.766;2023-04-25T00:13:12;25.88;;;5.10;;
59974;SDS011;62136;-35.664;-63.766;2023-04-25T00:15:40;20.50;;;4.07;;
59974;SDS011;62136;-35.664;-63.766;2023-04-25T00:18:07;18.83;;;4.32;;
59974;SDS011;62136;-35.664;-63.766;2023-04-25T00:20:35;18.25;;;4.97;;
59974;SDS011;62136;-35.664;-63.766;2023-04-25T00:23:02;20.65;;;6.18;;
59974;SDS011;62136;-35.664;-63.766;2023-04-25T00:25:29;21.67;;;4.63;;
59974;SDS011;62136;-35.664;-63.766;2023-04-25T00:27:56;20.80;;;5.20;;
59974;SDS011;62136;-35.664;-63.766;2023-04-25T00:30:23;28.65;;;5.80;;
59974;SDS011;62136;-35.664;-63.766;2023-04-25T00:32:50;30.20;;;6.07;;
59974;SDS011;62136;-35.664;-63.766;2023-04-25T00:35:17;21.23;;;6.22;;
59974;SDS011;62136;-35.664;-63.766;2023-04-25T00:37:45;20.58;;;5.80;;
59974;SDS011;62136;-35.664;-63.766;2023-04-25T00:40:12;27.40;;;6.55;;
59974;SDS011;62136;-35.664;-63.766;2023-04-25T00:42:39;22.17;;;6.22;;
59974;SDS011;62136;-35.664;-63.766;2023-04-25T00:45:07;23.88;;;6.10;;
59974;SDS011;62136;-35.664;-63.766;2023-04-25T00:47:39;20.13;;;6.88;;
59974;SDS011;62136;-35.664;-63.766;2023-04-25T00:50:08;20.85;;;6.75;;
59974;SDS011;62136;-35.664;-63.766;2023-04-25T00:52:37;24.98;;;6.53;;
59974;SDS011;62136;-35.664;-63.766;2023-04-25T00:55:06;26.83;;;6.20;;
59974;SDS011;62136;-35.664;-63.766;2023-04-25T00:57:34;26.15;;;7.43;;
59974;SDS011;62136;-35.664;-63.766;2023-04-25T01:00:01;28.48;;;6.93;;
59974;SDS011;62136;-35.664;-63.766;2023-04-25T01:02:30;19.63;;;6.88;;
59974;SDS011;62136;-35.664;-63.766;2023-04-25T01:04:59;36.78;;;8.88;;
59974;SDS011;62136;-35.664;-63.766;2023-04-25T01:07:26;19.92;;;6.45;;
59974;SDS011;62136;-35.664;-63.766;2023-04-25T01:09:53;33.92;;;8.40;;
59974;SDS011;62136;-35.664;-63.766;2023-04-25T01:12:20;33.80;;;8.75;;
59974;SDS011;62136;-35.664;-63.766;2023-04-25T01:14:48;25.48;;;7.10;;
59974;SDS011;62136;-35.664;-63.766;2023-04-25T01:17:15;29.98;;;7.20;;
59974;SDS011;62136;-35.664;-63.766;2023-04-25T01:19:43;25.58;;;6.90;;
59974;SDS011;62136;-35.664;-63.766;2023-04-25T01:22:13;26.13;;;7.80;;
59974;SDS011;62136;-35.664;-63.766;2023-04-25T01:24:41;25.55;;;7.45;;
59974;SDS011;62136;-35.664;-63.766;2023-04-25T01:27:11;28.98;;;6.97;;
59974;SDS011;62136;-35.664;-63.766;2023-04-25T01:29:38;25.92;;;6.85;;
59974;SDS011;62136;-35.664;-63.766;2023-04-25T01:32:05;23.83;;;7.50;;
59974;SDS011;62136;-35.664;-63.766;2023-04-25T01:34:33;24.27;;;7.05;;
59974;SDS011;62136;-35.664;-63.766;2023-04-25T01:37:00;16.25;;;6.72;;
59974;SDS011;62136;-35.664;-63.766;2023-04-25T01:39:27;21.48;;;6.43;;
59974;SDS011;62136;-35.664;-63.766;2023-04-25T01:41:55;22.10;;;6.68;;
59974;SDS011;62136;-35.664;-63.766;2023-04-25T01:44:22;19.27;;;6.53;;
59974;SDS011;62136;-35.664;-63.766;2023-04-25T01:46:49;18.05;;;7.00;;
59974;SDS011;62136;-35.664;-63.766;2023-04-25T01:49:16;17.10;;;6.35;;
59974;SDS011;62136;-35.664;-63.766;2023-04-25T01:51:43;20.10;;;6.50;;
59974;SDS011;62136;-35.664;-63.766;2023-04-25T01:54:13;18.45;;;6.47;;
59974;SDS011;62136;-35.664;-63.766;2023-04-25T01:56:41;18.73;;;6.15;;
59974;SDS011;62136;-35.664;-63.766;2023-04-25T01:59:10;13.45;;;5.93;;
59974;SDS011;62136;-35.664;-63.766;2023-04-25T02:01:40;14.18;;;5.57;;
59974;SDS011;62136;-35.664;-63.766;2023-04-25T02:04:07;18.35;;;6.45;;
59974;SDS011;62136;-35.664;-63.766;2023-04-25T02:06:34;15.07;;;5.80;;
59974;SDS011;62136;-35.664;-63.766;2023-04-25T02:09:01;16.70;;;5.95;;
59974;SDS011;62136;-35.664;-63.766;2023-04-25T02:11:28;15.35;;;5.60;;
59974;SDS011;62136;-35.664;-63.766;2023-04-25T02:13:55;15.00;;;6.03;;
59974;SDS011;62136;-35.664;-63.766;2023-04-25T02:16:22;16.60;;;6.18;;
59974;SDS011;62136;-35.664;-63.766;2023-04-25T02:18:50;11.48;;;5.72;;
59974;SDS011;62136;-35.664;-63.766;2023-04-25T02:21:18;14.85;;;5.82;;
59974;SDS011;62136;-35.664;-63.766;2023-04-25T02:23:45;15.68;;;5.28;;
59974;SDS011;62136;-35.664;-63.766;2023-04-25T02:26:14;13.95;;;5.75;;
59974;SDS011;62136;-35.664;-63.766;2023-04-25T02:28:41;14.18;;;5.28;;
59974;SDS011;62136;-35.664;-63.766;2023-04-25T02:31:08;19.35;;;5.55;;
59974;SDS011;62136;-35.664;-63.766;2023-04-25T02:33:35;12.80;;;5.45;;
59974;SDS011;62136;-35.664;-63.766;2023-04-25T02:36:02;13.02;;;4.63;;
59974;SDS011;62136;-35.664;-63.766;2023-04-25T02:38:32;14.80;;;5.00;;
59974;SDS011;62136;-35.664;-63.766;2023-04-25T02:40:59;10.52;;;4.95;;
59974;SDS011;62136;-35.664;-63.766;2023-04-25T02:43:26;11.32;;;5.18;;
59974;SDS011;62136;-35.664;-63.766;2023-04-25T02:45:53;13.73;;;5.35;;
59974;SDS011;62136;-35.664;-63.766;2023-04-25T02:48:20;9.65;;;4.72;;
59974;SDS011;62136;-35.664;-63.766;2023-04-25T02:50:47;12.23;;;5.10;;
59974;SDS011;62136;-35.664;-63.766;2023-04-25T02:53:15;12.68;;;5.10;;
59974;SDS011;62136;-35.664;-63.766;2023-04-25T02:55:42;9.02;;;4.53;;
59974;SDS011;62136;-35.664;-63.766;2023-04-25T02:58:09;11.88;;;4.72;;
59974;SDS011;62136;-35.664;-63.766;2023-04-25T03:00:36;9.18;;;4.82;;
59974;SDS011;62136;-35.664;-63.766;2023-04-25T03:03:03;12.23;;;4.97;;
59974;SDS011;62136;-35.664;-63.766;2023-04-25T03:05:30;10.18;;;4.38;;
59974;SDS011;62136;-35.664;-63.766;2023-04-25T03:07:57;8.98;;;4.90;;
59974;SDS011;62136;-35.664;-63.766;2023-04-25T03:10:24;12.68;;;4.75;;
59974;SDS011;62136;-35.664;-63.766;2023-04-25T03:12:54;14.52;;;5.20;;
59974;SDS011;62136;-35.664;-63.766;2023-04-25T03:15:21;11.27;;;4.90;;
59974;SDS011;62136;-35.664;-63.766;2023-04-25T03:17:48;11.80;;;4.53;;
59974;SDS011;62136;-35.664;-63.766;2023-04-25T03:20:18;11.55;;;4.75;;
59974;SDS011;62136;-35.664;-63.766;2023-04-25T03:22:45;10.93;;;4.40;;
59974;SDS011;62136;-35.664;-63.766;2023-04-25T03:25:12;12.25;;;5.07;;
59974;SDS011;62136;-35.664;-63.766;2023-04-25T03:27:39;10.68;;;4.30;;
59974;SDS011;62136;-35.664;-63.766;2023-04-25T03:30:07;8.80;;;4.18;;
59974;SDS011;62136;-35.664;-63.766;2023-04-25T03:32:34;11.50;;;4.47;;
59974;SDS011;62136;-35.664;-63.766;2023-04-25T03:35:01;13.35;;;5.30;;
59974;SDS011;62136;-35.664;-63.766;2023-04-25T03:37:29;10.73;;;4.38;;
59974;SDS011;62136;-35.664;-63.766;2023-04-25T03:39:56;9.77;;;4.20;;
59974;SDS011;62136;-35.664;-63.766;2023-04-25T03:42:23;8.82;;;4.40;;
59974;SDS011;62136;-35.664;-63.766;2023-04-25T03:44:51;8.80;;;4.45;;
59974;SDS011;62136;-35.664;-63.766;2023-04-25T03:47:18;8.10;;;4.72;;
59974;SDS011;62136;-35.664;-63.766;2023-04-25T03:49:45;9.70;;;4.47;;
59974;SDS011;62136;-35.664;-63.766;2023-04-25T03:52:12;10.25;;;4.45;;
59974;SDS011;62136;-35.664;-63.766;2023-04-25T03:54:39;9.90;;;4.63;;
59974;SDS011;62136;-35.664;-63.766;2023-04-25T03:57:06;8.23;;;4.43;;
59974;SDS011;62136;-35.664;-63.766;2023-04-25T03:59:33;7.38;;;4.13;;
59974;SDS011;62136;-35.664;-63.766;2023-04-25T04:02:00;11.00;;;4.40;;
59974;SDS011;62136;-35.664;-63.766;2023-04-25T04:04:27;8.52;;;3.90;;
59974;SDS011;62136;-35.664;-63.766;2023-04-25T04:06:55;7.93;;;4.03;;
59974;SDS011;62136;-35.664;-63.766;2023-04-25T04:09:22;7.30;;;4.15;;
59974;SDS011;62136;-35.664;-63.766;2023-04-25T04:11:49;7.75;;;4.00;;
59974;SDS011;62136;-35.664;-63.766;2023-04-25T04:14:16;9.07;;;4.30;;
59974;SDS011;62136;-35.664;-63.766;2023-04-25T04:16:43;7.25;;;4.22;;
59974;SDS011;62136;-35.664;-63.766;2023-04-25T04:19:10;6.63;;;3.63;;
59974;SDS011;62136;-35.664;-63.766;2023-04-25T04:21:37;7.43;;;3.80;;
59974;SDS011;62136;-35.664;-63.766;2023-04-25T04:24:05;9.13;;;4.00;;
59974;SDS011;62136;-35.664;-63.766;2023-04-25T04:26:32;10.73;;;4.28;;
59974;SDS011;62136;-35.664;-63.766;2023-04-25T04:28:59;5.50;;;4.18;;
59974;SDS011;62136;-35.664;-63.766;2023-04-25T04:31:26;8.32;;;4.10;;
59974;SDS011;62136;-35.664;-63.766;2023-04-25T04:33:55;8.40;;;4.20;;
59974;SDS011;62136;-35.664;-63.766;2023-04-25T04:36:22;6.88;;;3.70;;
59974;SDS011;62136;-35.664;-63.766;2023-04-25T04:38:51;6.63;;;4.03;;
59974;SDS011;62136;-35.664;-63.766;2023-04-25T04:41:19;8.02;;;3.90;;
59974;SDS011;62136;-35.664;-63.766;2023-04-25T04:43:46;6.35;;;3.80;;
59974;SDS011;62136;-35.664;-63.766;2023-04-25T04:46:13;7.32;;;4.00;;
59974;SDS011;62136;-35.664;-63.766;2023-04-25T04:48:41;8.35;;;4.07;;
59974;SDS011;62136;-35.664;-63.766;2023-04-25T04:51:09;8.88;;;4.03;;
59974;SDS011;62136;-35.664;-63.766;2023-04-25T04:53:36;7.07;;;3.88;;
59974;SDS011;62136;-35.664;-63.766;2023-04-25T04:56:04;6.25;;;3.53;;
59974;SDS011;62136;-35.664;-63.766;2023-04-25T04:58:31;5.38;;;3.80;;
59974;SDS011;62136;-35.664;-63.766;2023-04-25T05:00:58;6.05;;;4.07;;
59974;SDS011;62136;-35.664;-63.766;2023-04-25T05:03:25;6.50;;;3.80;;
59974;SDS011;62136;-35.664;-63.766;2023-04-25T05:05:52;6.90;;;3.58;;
59974;SDS011;62136;-35.664;-63.766;2023-04-25T05:08:20;6.25;;;3.78;;
59974;SDS011;62136;-35.664;-63.766;2023-04-25T05:10:47;4.70;;;3.70;;
59974;SDS011;62136;-35.664;-63.766;2023-04-25T05:13:14;9.80;;;4.05;;
59974;SDS011;62136;-35.664;-63.766;2023-04-25T05:15:41;7.70;;;3.90;;
59974;SDS011;62136;-35.664;-63.766;2023-04-25T05:18:08;6.43;;;3.17;;
59974;SDS011;62136;-35.664;-63.766;2023-04-25T05:20:35;7.75;;;3.95;;
59974;SDS011;62136;-35.664;-63.766;2023-04-25T05:23:02;6.30;;;3.60;;
59974;SDS011;62136;-35.664;-63.766;2023-04-25T05:25:30;7.97;;;3.83;;
59974;SDS011;62136;-35.664;-63.766;2023-04-25T05:27:57;5.82;;;3.47;;
59974;SDS011;62136;-35.664;-63.766;2023-04-25T05:30:24;5.38;;;3.67;;
59974;SDS011;62136;-35.664;-63.766;2023-04-25T05:32:51;4.55;;;3.75;;
59974;SDS011;62136;-35.664;-63.766;2023-04-25T05:35:18;5.95;;;3.88;;
59974;SDS011;62136;-35.664;-63.766;2023-04-25T05:37:45;5.70;;;3.80;;
59974;SDS011;62136;-35.664;-63.766;2023-04-25T05:40:12;6.40;;;3.50;;
59974;SDS011;62136;-35.664;-63.766;2023-04-25T05:42:39;7.07;;;3.33;;
59974;SDS011;62136;-35.664;-63.766;2023-04-25T05:45:06;6.80;;;3.40;;
59974;SDS011;62136;-35.664;-63.766;2023-04-25T05:47:34;4.82;;;3.30;;
59974;SDS011;62136;-35.664;-63.766;2023-04-25T05:50:01;4.57;;;3.72;;
59974;SDS011;62136;-35.664;-63.766;2023-04-25T05:52:28;6.22;;;3.70;;
59974;SDS011;62136;-35.664;-63.766;2023-04-25T05:54:55;6.60;;;3.50;;
59974;SDS011;62136;-35.664;-63.766;2023-04-25T05:57:24;6.10;;;3.47;;
59974;SDS011;62136;-35.664;-63.766;2023-04-25T05:59:52;6.72;;;3.50;;
59974;SDS011;62136;-35.664;-63.766;2023-04-25T06:02:20;4.55;;;3.13;;
59974;SDS011;62136;-35.664;-63.766;2023-04-25T06:04:50;6.22;;;3.83;;
59974;SDS011;62136;-35.664;-63.766;2023-04-25T06:07:21;4.75;;;3.63;;
59974;SDS011;62136;-35.664;-63.766;2023-04-25T06:09:48;5.00;;;3.35;;
59974;SDS011;62136;-35.664;-63.766;2023-04-25T06:12:15;7.50;;;3.78;;
59974;SDS011;62136;-35.664;-63.766;2023-04-25T06:14:42;6.40;;;3.35;;
59974;SDS011;62136;-35.664;-63.766;2023-04-25T06:17:09;5.88;;;3.45;;
59974;SDS011;62136;-35.664;-63.766;2023-04-25T06:19:36;6.40;;;3.58;;
59974;SDS011;62136;-35.664;-63.766;2023-04-25T06:22:03;4.85;;;2.95;;
59974;SDS011;62136;-35.664;-63.766;2023-04-25T06:24:31;7.00;;;3.92;;
59974;SDS011;62136;-35.664;-63.766;2023-04-25T06:26:58;6.30;;;3.30;;
59974;SDS011;62136;-35.664;-63.766;2023-04-25T06:29:25;4.45;;;2.88;;
59974;SDS011;62136;-35.664;-63.766;2023-04-25T06:31:52;6.97;;;3.72;;
59974;SDS011;62136;-35.664;-63.766;2023-04-25T06:34:19;6.15;;;3.40;;
59974;SDS011;62136;-35.664;-63.766;2023-04-25T06:36:46;4.10;;;3.17;;
59974;SDS011;62136;-35.664;-63.766;2023-04-25T06:39:13;5.57;;;3.72;;
59974;SDS011;62136;-35.664;-63.766;2023-04-25T06:41:41;5.97;;;3.50;;
59974;SDS011;62136;-35.664;-63.766;2023-04-25T06:44:08;4.32;;;3.22;;
59974;SDS011;62136;-35.664;-63.766;2023-04-25T06:46:35;5.22;;;3.75;;
59974;SDS011;62136;-35.664;-63.766;2023-04-25T06:49:03;3.55;;;3.05;;
59974;SDS011;62136;-35.664;-63.766;2023-04-25T06:51:30;3.50;;;2.80;;
59974;SDS011;62136;-35.664;-63.766;2023-04-25T06:53:57;6.88;;;3.60;;
59974;SDS011;62136;-35.664;-63.766;2023-04-25T06:56:25;6.00;;;3.30;;
59974;SDS011;62136;-35.664;-63.766;2023-04-25T06:58:53;5.88;;;3.17;;
59974;SDS011;62136;-35.664;-63.766;2023-04-25T07:01:20;4.78;;;2.67;;
59974;SDS011;62136;-35.664;-63.766;2023-04-25T07:03:47;6.35;;;3.50;;
59974;SDS011;62136;-35.664;-63.766;2023-04-25T07:06:14;5.05;;;2.92;;
59974;SDS011;62136;-35.664;-63.766;2023-04-25T07:08:41;5.40;;;2.97;;
59974;SDS011;62136;-35.664;-63.766;2023-04-25T07:11:08;5.13;;;2.95;;
59974;SDS011;62136;-35.664;-63.766;2023-04-25T07:13:35;3.92;;;3.10;;
59974;SDS011;62136;-35.664;-63.766;2023-04-25T07:16:03;5.93;;;3.38;;
59974;SDS011;62136;-35.664;-63.766;2023-04-25T07:18:30;4.40;;;2.92;;
59974;SDS011;62136;-35.664;-63.766;2023-04-25T07:20:57;3.97;;;3.30;;
59974;SDS011;62136;-35.664;-63.766;2023-04-25T07:23:24;3.88;;;3.05;;
59974;SDS011;62136;-35.664;-63.766;2023-04-25T07:25:51;4.65;;;3.10;;
59974;SDS011;62136;-35.664;-63.766;2023-04-25T07:28:18;5.45;;;3.08;;
59974;SDS011;62136;-35.664;-63.766;2023-04-25T07:30:45;5.47;;;3.13;;
59974;SDS011;62136;-35.664;-63.766;2023-04-25T07:33:12;6.03;;;3.30;;
59974;SDS011;62136;-35.664;-63.766;2023-04-25T07:35:40;3.90;;;3.08;;
59974;SDS011;62136;-35.664;-63.766;2023-04-25T07:38:07;3.60;;;3.03;;
59974;SDS011;62136;-35.664;-63.766;2023-04-25T07:40:35;3.60;;;2.70;;
59974;SDS011;62136;-35.664;-63.766;2023-04-25T07:43:02;4.75;;;3.28;;
59974;SDS011;62136;-35.664;-63.766;2023-04-25T07:45:29;3.97;;;2.97;;
59974;SDS011;62136;-35.664;-63.766;2023-04-25T07:47:56;5.55;;;3.33;;
59974;SDS011;62136;-35.664;-63.766;2023-04-25T07:50:23;6.03;;;3.42;;
59974;SDS011;62136;-35.664;-63.766;2023-04-25T07:52:50;6.07;;;3.15;;
59974;SDS011;62136;-35.664;-63.766;2023-04-25T07:55:17;4.60;;;3.00;;
59974;SDS011;62136;-35.664;-63.766;2023-04-25T07:57:44;4.82;;;2.97;;
59974;SDS011;62136;-35.664;-63.766;2023-04-25T08:00:11;3.90;;;2.60;;
59974;SDS011;62136;-35.664;-63.766;2023-04-25T08:02:40;4.43;;;2.80;;
59974;SDS011;62136;-35.664;-63.766;2023-04-25T08:05:07;4.15;;;3.05;;
59974;SDS011;62136;-35.664;-63.766;2023-04-25T08:07:37;3.30;;;3.00;;
59974;SDS011;62136;-35.664;-63.766;2023-04-25T08:10:05;4.15;;;2.78;;
59974;SDS011;62136;-35.664;-63.766;2023-04-25T08:12:32;4.55;;;2.92;;
59974;SDS011;62136;-35.664;-63.766;2023-04-25T08:14:59;4.13;;;3.10;;
59974;SDS011;62136;-35.664;-63.766;2023-04-25T08:17:27;4.13;;;2.80;;
59974;SDS011;62136;-35.664;-63.766;2023-04-25T08:19:54;3.85;;;3.03;;
59974;SDS011;62136;-35.664;-63.766;2023-04-25T08:22:22;4.50;;;2.90;;
59974;SDS011;62136;-35.664;-63.766;2023-04-25T08:24:49;4.55;;;3.10;;
59974;SDS011;62136;-35.664;-63.766;2023-04-25T08:27:17;4.68;;;3.22;;
59974;SDS011;62136;-35.664;-63.766;2023-04-25T08:29:46;3.67;;;2.88;;
59974;SDS011;62136;-35.664;-63.766;2023-04-25T08:32:13;4.13;;;2.63;;
59974;SDS011;62136;-35.664;-63.766;2023-04-25T08:34:40;4.15;;;3.10;;
59974;SDS011;62136;-35.664;-63.766;2023-04-25T08:37:09;4.35;;;3.00;;
59974;SDS011;62136;-35.664;-63.766;2023-04-25T08:39:36;3.83;;;2.90;;
59974;SDS011;62136;-35.664;-63.766;2023-04-25T08:42:05;3.47;;;2.67;;
59974;SDS011;62136;-35.664;-63.766;2023-04-25T08:44:36;4.25;;;2.97;;
59974;SDS011;62136;-35.664;-63.766;2023-04-25T08:47:03;4.70;;;3.10;;
59974;SDS011;62136;-35.664;-63.766;2023-04-25T08:49:31;4.78;;;2.83;;
59974;SDS011;62136;-35.664;-63.766;2023-04-25T08:52:00;4.15;;;2.95;;
59974;SDS011;62136;-35.664;-63.766;2023-04-25T08:54:29;5.28;;;3.15;;
59974;SDS011;62136;-35.664;-63.766;2023-04-25T08:57:00;4.53;;;3.10;;
59974;SDS011;62136;-35.664;-63.766;2023-04-25T08:59:29;7.00;;;3.25;;
59974;SDS011;62136;-35.664;-63.766;2023-04-25T09:01:57;4.70;;;2.90;;
59974;SDS011;62136;-35.664;-63.766;2023-04-25T09:04:25;3.67;;;3.00;;
59974;SDS011;62136;-35.664;-63.766;2023-04-25T09:06:51;4.30;;;2.92;;
59974;SDS011;62136;-35.664;-63.766;2023-04-25T09:09:19;4.63;;;3.00;;
59974;SDS011;62136;-35.664;-63.766;2023-04-25T09:11:46;3.22;;;2.92;;
59974;SDS011;62136;-35.664;-63.766;2023-04-25T09:14:18;4.00;;;2.90;;
59974;SDS011;62136;-35.664;-63.766;2023-04-25T09:21:57;4.20;;;2.83;;
59974;SDS011;62136;-35.664;-63.766;2023-04-25T09:24:44;3.25;;;2.95;;
59974;SDS011;62136;-35.664;-63.766;2023-04-25T09:27:12;2.97;;;2.65;;
59974;SDS011;62136;-35.664;-63.766;2023-04-25T09:29:44;3.65;;;2.58;;
59974;SDS011;62136;-35.664;-63.766;2023-04-25T09:34:39;4.70;;;3.05;;
59974;SDS011;62136;-35.664;-63.766;2023-04-25T09:37:08;5.05;;;3.30;;
59974;SDS011;62136;-35.664;-63.766;2023-04-25T09:39:39;3.45;;;2.92;;
59974;SDS011;62136;-35.664;-63.766;2023-04-25T09:42:07;3.40;;;2.63;;
59974;SDS011;62136;-35.664;-63.766;2023-04-25T09:44:36;5.00;;;3.08;;
59974;SDS011;62136;-35.664;-63.766;2023-04-25T09:47:03;4.28;;;2.83;;
59974;SDS011;62136;-35.664;-63.766;2023-04-25T09:49:30;5.03;;;3.13;;
59974;SDS011;62136;-35.664;-63.766;2023-04-25T09:51:57;3.22;;;2.92;;
59974;SDS011;62136;-35.664;-63.766;2023-04-25T09:54:25;3.35;;;3.05;;
59974;SDS011;62136;-35.664;-63.766;2023-04-25T09:56:53;4.05;;;3.30;;
59974;SDS011;62136;-35.664;-63.766;2023-04-25T09:59:20;3.55;;;2.78;;
59974;SDS011;62136;-35.664;-63.766;2023-04-25T10:01:49;3.53;;;2.63;;
59974;SDS011;62136;-35.664;-63.766;2023-04-25T10:04:20;4.80;;;2.85;;
59974;SDS011;62136;-35.664;-63.766;2023-04-25T10:06:51;3.60;;;2.80;;
59974;SDS011;62136;-35.664;-63.766;2023-04-25T10:09:21;5.10;;;3.03;;
59974;SDS011;62136;-35.664;-63.766;2023-04-25T10:11:54;4.30;;;2.85;;
59974;SDS011;62136;-35.664;-63.766;2023-04-25T10:14:22;4.05;;;2.92;;
59974;SDS011;62136;-35.664;-63.766;2023-04-25T10:16:50;5.60;;;2.60;;
59974;SDS011;62136;-35.664;-63.766;2023-04-25T10:19:22;3.05;;;2.55;;
59974;SDS011;62136;-35.664;-63.766;2023-04-25T10:24:32;2.72;;;2.50;;
59974;SDS011;62136;-35.664;-63.766;2023-04-25T10:27:04;3.60;;;2.60;;
59974;SDS011;62136;-35.664;-63.766;2023-04-25T10:29:31;3.83;;;2.83;;
59974;SDS011;62136;-35.664;-63.766;2023-04-25T10:31:59;4.78;;;3.15;;
59974;SDS011;62136;-35.664;-63.766;2023-04-25T10:34:39;3.17;;;2.75;;
59974;SDS011;62136;-35.664;-63.766;2023-04-25T10:37:10;3.58;;;2.53;;
59974;SDS011;62136;-35.664;-63.766;2023-04-25T10:39:41;4.65;;;2.60;;
59974;SDS011;62136;-35.664;-63.766;2023-04-25T10:42:09;3.90;;;3.08;;
59974;SDS011;62136;-35.664;-63.766;2023-04-25T10:44:37;3.33;;;2.60;;
59974;SDS011;62136;-35.664;-63.766;2023-04-25T10:47:06;2.90;;;2.60;;
59974;SDS011;62136;-35.664;-63.766;2023-04-25T10:49:36;3.72;;;2.90;;
59974;SDS011;62136;-35.664;-63.766;2023-04-25T10:52:11;3.83;;;3.10;;
59974;SDS011;62136;-35.664;-63.766;2023-04-25T10:55:03;3.33;;;2.70;;
59974;SDS011;62136;-35.664;-63.766;2023-04-25T10:57:44;4.95;;;3.55;;
59974;SDS011;62136;-35.664;-63.766;2023-04-25T11:00:14;5.50;;;3.75;;
59974;SDS011;62136;-35.664;-63.766;2023-04-25T11:02:48;5.37;;;3.40;;
59974;SDS011;62136;-35.664;-63.766;2023-04-25T11:05:23;4.40;;;3.10;;
59974;SDS011;62136;-35.664;-63.766;2023-04-25T11:08:10;6.13;;;4.05;;
59974;SDS011;62136;-35.664;-63.766;2023-04-25T11:10:41;5.32;;;4.28;;
59974;SDS011;62136;-35.664;-63.766;2023-04-25T11:13:08;10.30;;;4.80;;
59974;SDS011;62136;-35.664;-63.766;2023-04-25T11:15:37;7.90;;;4.50;;
59974;SDS011;62136;-35.664;-63.766;2023-04-25T11:18:04;8.77;;;4.65;;
59974;SDS011;62136;-35.664;-63.766;2023-04-25T11:20:31;9.93;;;4.63;;
59974;SDS011;62136;-35.664;-63.766;2023-04-25T11:23:00;10.50;;;5.88;;
59974;SDS011;62136;-35.664;-63.766;2023-04-25T11:25:27;8.88;;;5.70;;
59974;SDS011;62136;-35.664;-63.766;2023-04-25T11:27:56;11.02;;;6.13;;
59974;SDS011;62136;-35.664;-63.766;2023-04-25T11:30:25;11.07;;;6.15;;
59974;SDS011;62136;-35.664;-63.766;2023-04-25T11:32:54;11.98;;;6.47;;
59974;SDS011;62136;-35.664;-63.766;2023-04-25T11:35:22;13.18;;;6.75;;
59974;SDS011;62136;-35.664;-63.766;2023-04-25T11:37:50;14.55;;;7.43;;
59974;SDS011;62136;-35.664;-63.766;2023-04-25T11:40:18;10.43;;;6.97;;
59974;SDS011;62136;-35.664;-63.766;2023-04-25T11:42:46;12.35;;;6.90;;
59974;SDS011;62136;-35.664;-63.766;2023-04-25T11:45:13;11.95;;;7.05;;
59974;SDS011;62136;-35.664;-63.766;2023-04-25T11:47:41;12.00;;;7.22;;
59974;SDS011;62136;-35.664;-63.766;2023-04-25T11:50:08;11.45;;;7.30;;
59974;SDS011;62136;-35.664;-63.766;2023-04-25T11:55:07;12.63;;;8.45;;
59974;SDS011;62136;-35.664;-63.766;2023-04-25T11:57:42;15.82;;;9.07;;
59974;SDS011;62136;-35.664;-63.766;2023-04-25T12:00:17;15.90;;;9.15;;
59974;SDS011;62136;-35.664;-63.766;2023-04-25T12:02:47;19.05;;;10.20;;
59974;SDS011;62136;-35.664;-63.766;2023-04-25T12:05:18;17.13;;;11.77;;
59974;SDS011;62136;-35.664;-63.766;2023-04-25T12:07:46;20.48;;;11.82;;
59974;SDS011;62136;-35.664;-63.766;2023-04-25T12:10:14;19.50;;;12.65;;
59974;SDS011;62136;-35.664;-63.766;2023-04-25T12:12:43;20.45;;;12.05;;
59974;SDS011;62136;-35.664;-63.766;2023-04-25T12:17:52;16.85;;;11.77;;
59974;SDS011;62136;-35.664;-63.766;2023-04-25T12:20:25;19.88;;;11.85;;
59974;SDS011;62136;-35.664;-63.766;2023-04-25T12:22:52;19.48;;;12.23;;
59974;SDS011;62136;-35.664;-63.766;2023-04-25T12:25:39;19.73;;;12.57;;
59974;SDS011;62136;-35.664;-63.766;2023-04-25T12:33:29;19.13;;;13.40;;
59974;SDS011;62136;-35.664;-63.766;2023-04-25T12:35:58;18.55;;;12.73;;
59974;SDS011;62136;-35.664;-63.766;2023-04-25T12:38:27;21.67;;;13.25;;
59974;SDS011;62136;-35.664;-63.766;2023-04-25T12:40:59;19.77;;;12.40;;
59974;SDS011;62136;-35.664;-63.766;2023-04-25T12:43:28;18.80;;;12.95;;
59974;SDS011;62136;-35.664;-63.766;2023-04-25T12:45:55;20.05;;;13.30;;
59974;SDS011;62136;-35.664;-63.766;2023-04-25T12:48:23;17.73;;;11.77;;
59974;SDS011;62136;-35.664;-63.766;2023-04-25T12:50:50;18.70;;;11.98;;
59974;SDS011;62136;-35.664;-63.766;2023-04-25T12:53:18;13.35;;;10.25;;
59974;SDS011;62136;-35.664;-63.766;2023-04-25T12:55:48;13.00;;;9.63;;
59974;SDS011;62136;-35.664;-63.766;2023-04-25T12:58:17;13.52;;;9.75;;
59974;SDS011;62136;-35.664;-63.766;2023-04-25T13:00:45;17.42;;;10.00;;
59974;SDS011;62136;-35.664;-63.766;2023-04-25T13:03:13;13.27;;;8.80;;
59974;SDS011;62136;-35.664;-63.766;2023-04-25T13:05:40;12.68;;;8.93;;
59974;SDS011;62136;-35.664;-63.766;2023-04-25T13:08:07;15.10;;;9.05;;
59974;SDS011;62136;-35.664;-63.766;2023-04-25T13:10:35;10.10;;;8.45;;
59974;SDS011;62136;-35.664;-63.766;2023-04-25T13:13:03;13.70;;;8.75;;
59974;SDS011;62136;-35.664;-63.766;2023-04-25T13:15:30;12.32;;;8.80;;
59974;SDS011;62136;-35.664;-63.766;2023-04-25T13:17:58;11.68;;;8.70;;
59974;SDS011;62136;-35.664;-63.766;2023-04-25T13:20:25;12.57;;;8.07;;
59974;SDS011;62136;-35.664;-63.766;2023-04-25T13:22:52;15.23;;;9.13;;
59974;SDS011;62136;-35.664;-63.766;2023-04-25T13:25:19;11.40;;;8.32;;
59974;SDS011;62136;-35.664;-63.766;2023-04-25T13:27:47;11.77;;;7.78;;
59974;SDS011;62136;-35.664;-63.766;2023-04-25T13:30:16;9.88;;;7.70;;
59974;SDS011;62136;-35.664;-63.766;2023-04-25T13:32:44;13.40;;;7.50;;
59974;SDS011;62136;-35.664;-63.766;2023-04-25T13:35:12;10.13;;;7.40;;
59974;SDS011;62136;-35.664;-63.766;2023-04-25T13:37:40;10.70;;;7.68;;
59974;SDS011;62136;-35.664;-63.766;2023-04-25T13:40:09;12.45;;;7.75;;
59974;SDS011;62136;-35.664;-63.766;2023-04-25T13:42:37;13.50;;;7.28;;
59974;SDS011;62136;-35.664;-63.766;2023-04-25T13:45:05;12.23;;;7.47;;
59974;SDS011;62136;-35.664;-63.766;2023-04-25T13:47:33;11.73;;;6.82;;
59974;SDS011;62136;-35.664;-63.766;2023-04-25T13:50:01;14.15;;;7.03;;
59974;SDS011;62136;-35.664;-63.766;2023-04-25T13:52:30;9.82;;;7.35;;
59974;SDS011;62136;-35.664;-63.766;2023-04-25T13:54:57;10.57;;;6.50;;
59974;SDS011;62136;-35.664;-63.766;2023-04-25T13:57:25;12.40;;;6.68;;
59974;SDS011;62136;-35.664;-63.766;2023-04-25T13:59:52;11.40;;;6.68;;
59974;SDS011;62136;-35.664;-63.766;2023-04-25T14:02:20;9.98;;;6.63;;
59974;SDS011;62136;-35.664;-63.766;2023-04-25T14:04:48;11.23;;;6.55;;
59974;SDS011;62136;-35.664;-63.766;2023-04-25T14:07:17;12.43;;;6.70;;
59974;SDS011;62136;-35.664;-63.766;2023-04-25T14:09:47;9.90;;;6.53;;
59974;SDS011;62136;-35.664;-63.766;2023-04-25T14:12:15;9.90;;;6.55;;
59974;SDS011;62136;-35.664;-63.766;2023-04-25T14:14:43;10.07;;;5.60;;
59974;SDS011;62136;-35.664;-63.766;2023-04-25T14:17:10;10.40;;;5.93;;
59974;SDS011;62136;-35.664;-63.766;2023-04-25T14:19:37;10.38;;;5.75;;
59974;SDS011;62136;-35.664;-63.766;2023-04-25T14:22:08;11.25;;;6.00;;
59974;SDS011;62136;-35.664;-63.766;2023-04-25T14:24:35;11.88;;;6.45;;
59974;SDS011;62136;-35.664;-63.766;2023-04-25T14:27:03;10.82;;;6.10;;
59974;SDS011;62136;-35.664;-63.766;2023-04-25T14:29:31;10.02;;;6.22;;